sensor_id;sensor_type;location;lat;lon;timestamp;pressure;altitude;pressure_sealevel;temperature;humidity
11621;BME280;5866;49.094;11.900;2023-05-20T00:00:50;96376.63;;;13.61;100.00
11621;BME280;5866;49.094;11.900;2023-05-20T00:03:18;96383.91;;;13.67;100.00
11621;BME280;5866;49.094;11.900;2023-05-20T00:05:47;96390.34;;;13.49;100.00
11621;BME280;5866;49.094;11.900;2023-05-20T00:08:14;96396.97;;;13.53;100.00
11621;BME280;5866;49.094;11.900;2023-05-20T00:10:42;96403.47;;;13.51;100.00
11621;BME280;5866;49.094;11.900;2023-05-20T00:13:09;96394.19;;;13.47;100.00
11621;BME280;5866;49.094;11.900;2023-05-20T00:15:37;96395.53;;;13.43;100.00
11621;BME280;5866;49.094;11.900;2023-05-20T00:18:06;96385.44;;;13.30;100.00
11621;BME280;5866;49.094;11.900;2023-05-20T00:20:34;96400.81;;;13.20;100.00
11621;BME280;5866;49.094;11.900;2023-05-20T00:23:01;96386.72;;;13.12;100.00
11621;BME280;5866;49.094;11.900;2023-05-20T00:25:29;96389.09;;;13.07;100.00
11621;BME280;5866;49.094;11.900;2023-05-20T00:27:58;96382.56;;;13.01;100.00
11621;BME280;5866;49.094;11.900;2023-05-20T00:30:25;96379.91;;;13.01;100.00
11621;BME280;5866;49.094;11.900;2023-05-20T00:32:53;96379.59;;;13.04;100.00
11621;BME280;5866;49.094;11.900;2023-05-20T00:35:22;96368.63;;;12.91;100.00
11621;BME280;5866;49.094;11.900;2023-05-20T00:37:49;96364.34;;;12.82;100.00
11621;BME280;5866;49.094;11.900;2023-05-20T00:40:17;96358.03;;;12.83;100.00
11621;BME280;5866;49.094;11.900;2023-05-20T00:42:46;96361.38;;;12.77;100.00
11621;BME280;5866;49.094;11.900;2023-05-20T00:45:13;96367.84;;;12.83;100.00
11621;BME280;5866;49.094;11.900;2023-05-20T00:47:41;96362.06;;;12.71;100.00
11621;BME280;5866;49.094;11.900;2023-05-20T00:50:09;96361.22;;;12.70;100.00
11621;BME280;5866;49.094;11.900;2023-05-20T00:52:39;96367.72;;;12.68;100.00
11621;BME280;5866;49.094;11.900;2023-05-20T00:55:10;96365.75;;;12.62;100.00
11621;BME280;5866;49.094;11.900;2023-05-20T00:57:38;96360.53;;;12.76;100.00
11621;BME280;5866;49.094;11.900;2023-05-20T01:00:09;96368.09;;;12.65;100.00
11621;BME280;5866;49.094;11.900;2023-05-20T01:02:40;96369.88;;;12.72;100.00
11621;BME280;5866;49.094;11.900;2023-05-20T01:05:08;96365.09;;;12.60;100.00
11621;BME280;5866;49.094;11.900;2023-05-20T01:07:36;96373.00;;;12.76;100.00
11621;BME280;5866;49.094;11.900;2023-05-20T01:10:06;96373.53;;;12.71;100.00
11621;BME280;5866;49.094;11.900;2023-05-20T01:12:36;96374.97;;;12.82;100.00
11621;BME280;5866;49.094;11.900;2023-05-20T01:15:07;96365.38;;;12.73;100.00
11621;BME280;5866;49.094;11.900;2023-05-20T01:17:38;96360.88;;;12.82;100.00
11621;BME280;5866;49.094;11.900;2023-05-20T01:20:07;96358.50;;;12.87;100.00
11621;BME280;5866;49.094;11.900;2023-05-20T01:22:37;96360.06;;;12.73;100.00
11621;BME280;5866;49.094;11.900;2023-05-20T01:25:06;96350.09;;;12.67;100.00
11621;BME280;5866;49.094;11.900;2023-05-20T01:27:33;96348.94;;;12.61;100.00
11621;BME280;5866;49.094;11.900;2023-05-20T01:30:02;96349.41;;;12.73;100.00
11621;BME280;5866;49.094;11.900;2023-05-20T01:32:32;96347.09;;;12.70;100.00
11621;BME280;5866;49.094;11.900;2023-05-20T01:35:02;96347.78;;;12.64;100.00
11621;BME280;5866;49.094;11.900;2023-05-20T01:37:31;96351.06;;;12.74;100.00
11621;BME280;5866;49.094;11.900;2023-05-20T01:40:03;96339.47;;;12.67;100.00
11621;BME280;5866;49.094;11.900;2023-05-20T01:42:31;96341.47;;;12.57;100.00
11621;BME280;5866;49.094;11.900;2023-05-20T01:45:00;96341.81;;;12.62;100.00
11621;BME280;5866;49.094;11.900;2023-05-20T01:47:27;96347.09;;;12.70;100.00
11621;BME280;5866;49.094;11.900;2023-05-20T01:49:55;96330.00;;;12.64;100.00
11621;BME280;5866;49.094;11.900;2023-05-20T01:52:23;96337.31;;;12.62;100.00
11621;BME280;5866;49.094;11.900;2023-05-20T01:54:50;96332.81;;;12.55;100.00
11621;BME280;5866;49.094;11.900;2023-05-20T01:57:20;96329.38;;;12.54;100.00
11621;BME280;5866;49.094;11.900;2023-05-20T01:59:48;96331.16;;;12.62;100.00
11621;BME280;5866;49.094;11.900;2023-05-20T02:02:16;96324.38;;;12.51;100.00
11621;BME280;5866;49.094;11.900;2023-05-20T02:04:45;96336.31;;;12.55;100.00
11621;BME280;5866;49.094;11.900;2023-05-20T02:07:13;96337.31;;;12.62;100.00
11621;BME280;5866;49.094;11.900;2023-05-20T02:09:41;96335.16;;;12.58;100.00
11621;BME280;5866;49.094;11.900;2023-05-20T02:12:09;96336.16;;;12.57;100.00
11621;BME280;5866;49.094;11.900;2023-05-20T02:14:43;96335.16;;;12.58;100.00
11621;BME280;5866;49.094;11.900;2023-05-20T02:17:11;96324.84;;;12.55;100.00
11621;BME280;5866;49.094;11.900;2023-05-20T02:19:39;96335.22;;;12.42;100.00
11621;BME280;5866;49.094;11.900;2023-05-20T02:22:07;96333.38;;;12.42;100.00
11621;BME280;5866;49.094;11.900;2023-05-20T02:24:35;96332.56;;;12.34;100.00
11621;BME280;5866;49.094;11.900;2023-05-20T02:27:02;96333.53;;;12.49;100.00
11621;BME280;5866;49.094;11.900;2023-05-20T02:29:31;96339.88;;;12.32;100.00
11621;BME280;5866;49.094;11.900;2023-05-20T02:32:00;96320.13;;;12.26;100.00
11621;BME280;5866;49.094;11.900;2023-05-20T02:34:29;96331.25;;;12.22;100.00
11621;BME280;5866;49.094;11.900;2023-05-20T02:36:57;96330.28;;;12.15;100.00
11621;BME280;5866;49.094;11.900;2023-05-20T02:39:25;96333.28;;;12.12;100.00
11621;BME280;5866;49.094;11.900;2023-05-20T02:41:53;96337.59;;;12.05;100.00
11621;BME280;5866;49.094;11.900;2023-05-20T02:44:21;96334.97;;;12.13;100.00
11621;BME280;5866;49.094;11.900;2023-05-20T02:46:49;96332.97;;;12.15;100.00
11621;BME280;5866;49.094;11.900;2023-05-20T02:49:18;96345.06;;;12.09;100.00
11621;BME280;5866;49.094;11.900;2023-05-20T02:51:45;96343.91;;;12.12;100.00
11621;BME280;5866;49.094;11.900;2023-05-20T02:54:13;96341.91;;;12.14;100.00
11621;BME280;5866;49.094;11.900;2023-05-20T02:56:40;96346.41;;;12.13;100.00
11621;BME280;5866;49.094;11.900;2023-05-20T02:59:08;96344.75;;;12.12;100.00
11621;BME280;5866;49.094;11.900;2023-05-20T03:01:35;96344.59;;;11.98;100.00
11621;BME280;5866;49.094;11.900;2023-05-20T03:04:03;96336.78;;;11.96;100.00
11621;BME280;5866;49.094;11.900;2023-05-20T03:06:32;96331.34;;;11.89;100.00
11621;BME280;5866;49.094;11.900;2023-05-20T03:09:00;96341.63;;;11.84;100.00
11621;BME280;5866;49.094;11.900;2023-05-20T03:11:28;96339.63;;;11.86;100.00
11621;BME280;5866;49.094;11.900;2023-05-20T03:13:55;96346.09;;;11.84;100.00
11621;BME280;5866;49.094;11.900;2023-05-20T03:16:23;96339.97;;;11.91;100.00
11621;BME280;5866;49.094;11.900;2023-05-20T03:18:50;96352.41;;;11.91;100.00
11621;BME280;5866;49.094;11.900;2023-05-20T03:21:19;96344.44;;;11.91;100.00
11621;BME280;5866;49.094;11.900;2023-05-20T03:23:50;96348.25;;;11.88;100.00
11621;BME280;5866;49.094;11.900;2023-05-20T03:26:18;96346.25;;;11.90;100.00
11621;BME280;5866;49.094;11.900;2023-05-20T03:28:46;96340.28;;;11.80;100.00
11621;BME280;5866;49.094;11.900;2023-05-20T03:31:14;96345.94;;;11.93;100.00
11621;BME280;5866;49.094;11.900;2023-05-20T03:33:42;96349.75;;;11.99;100.00
11621;BME280;5866;49.094;11.900;2023-05-20T03:36:10;96349.22;;;12.12;100.00
11621;BME280;5866;49.094;11.900;2023-05-20T03:38:38;96340.75;;;12.16;100.00
11621;BME280;5866;49.094;11.900;2023-05-20T03:41:07;96340.63;;;11.93;100.00
11621;BME280;5866;49.094;11.900;2023-05-20T03:43:34;96343.94;;;11.95;100.00
11621;BME280;5866;49.094;11.900;2023-05-20T03:46:02;96345.59;;;11.96;100.00
11621;BME280;5866;49.094;11.900;2023-05-20T03:48:29;96343.41;;;12.16;100.00
11621;BME280;5866;49.094;11.900;2023-05-20T03:50:57;96343.34;;;12.40;100.00
11621;BME280;5866;49.094;11.900;2023-05-20T03:53:24;96340.19;;;12.45;100.00
11621;BME280;5866;49.094;11.900;2023-05-20T03:55:52;96344.00;;;12.42;100.00
11621;BME280;5866;49.094;11.900;2023-05-20T03:58:21;96348.53;;;12.26;100.00
11621;BME280;5866;49.094;11.900;2023-05-20T04:00:48;96349.06;;;12.29;100.00
11621;BME280;5866;49.094;11.900;2023-05-20T04:03:16;96345.25;;;12.16;100.00
11621;BME280;5866;49.094;11.900;2023-05-20T04:05:43;96345.59;;;12.13;100.00
11621;BME280;5866;49.094;11.900;2023-05-20T04:08:11;96340.22;;;12.29;100.00
11621;BME280;5866;49.094;11.900;2023-05-20T04:10:39;96342.50;;;12.56;100.00
11621;BME280;5866;49.094;11.900;2023-05-20T04:13:07;96335.56;;;12.86;100.00
11621;BME280;5866;49.094;11.900;2023-05-20T04:15:37;96333.25;;;13.21;100.00
11621;BME280;5866;49.094;11.900;2023-05-20T04:18:04;96332.47;;;13.35;100.00
11621;BME280;5866;49.094;11.900;2023-05-20T04:20:32;96323.72;;;13.27;100.00
11621;BME280;5866;49.094;11.900;2023-05-20T04:23:00;96326.03;;;13.30;100.00
11621;BME280;5866;49.094;11.900;2023-05-20T04:25:27;96320.00;;;13.36;100.00
11621;BME280;5866;49.094;11.900;2023-05-20T04:27:55;96328.34;;;14.15;100.00
11621;BME280;5866;49.094;11.900;2023-05-20T04:30:23;96323.25;;;14.43;100.00
11621;BME280;5866;49.094;11.900;2023-05-20T04:32:52;96325.19;;;14.49;100.00
11621;BME280;5866;49.094;11.900;2023-05-20T04:35:20;96329.06;;;14.61;100.00
11621;BME280;5866;49.094;11.900;2023-05-20T04:37:51;96317.28;;;14.70;100.00
11621;BME280;5866;49.094;11.900;2023-05-20T04:40:20;96304.91;;;14.69;100.00
11621;BME280;5866;49.094;11.900;2023-05-20T04:42:48;96313.22;;;14.74;100.00
11621;BME280;5866;49.094;11.900;2023-05-20T04:45:16;96303.81;;;15.29;100.00
11621;BME280;5866;49.094;11.900;2023-05-20T04:47:44;96312.88;;;15.49;100.00
11621;BME280;5866;49.094;11.900;2023-05-20T04:50:13;96311.94;;;15.21;100.00
11621;BME280;5866;49.094;11.900;2023-05-20T04:52:40;96316.28;;;15.07;100.00
11621;BME280;5866;49.094;11.900;2023-05-20T04:55:11;96314.56;;;15.35;100.00
11621;BME280;5866;49.094;11.900;2023-05-20T04:57:39;96302.13;;;15.28;100.00
11621;BME280;5866;49.094;11.900;2023-05-20T05:00:08;96311.84;;;15.71;100.00
11621;BME280;5866;49.094;11.900;2023-05-20T05:02:37;96301.28;;;15.84;100.00
11621;BME280;5866;49.094;11.900;2023-05-20T05:05:06;96311.28;;;15.97;100.00
11621;BME280;5866;49.094;11.900;2023-05-20T05:07:35;96304.59;;;15.86;100.00
11621;BME280;5866;49.094;11.900;2023-05-20T05:10:03;96305.34;;;16.01;100.00
11621;BME280;5866;49.094;11.900;2023-05-20T05:12:31;96297.03;;;16.17;100.00
11621;BME280;5866;49.094;11.900;2023-05-20T05:14:58;96299.78;;;16.03;100.00
11621;BME280;5866;49.094;11.900;2023-05-20T05:17:26;96305.09;;;15.96;100.00
11621;BME280;5866;49.094;11.900;2023-05-20T05:19:54;96302.47;;;16.30;100.00
11621;BME280;5866;49.094;11.900;2023-05-20T05:22:22;96309.66;;;16.51;100.00
11621;BME280;5866;49.094;11.900;2023-05-20T05:24:51;96300.94;;;16.77;100.00
11621;BME280;5866;49.094;11.900;2023-05-20T05:27:20;96299.28;;;17.23;98.89
11621;BME280;5866;49.094;11.900;2023-05-20T05:29:49;96295.72;;;17.63;93.94
11621;BME280;5866;49.094;11.900;2023-05-20T05:32:16;96294.28;;;17.74;91.67
11621;BME280;5866;49.094;11.900;2023-05-20T05:34:44;96285.19;;;17.81;90.34
11621;BME280;5866;49.094;11.900;2023-05-20T05:37:11;96292.06;;;17.17;95.02
11621;BME280;5866;49.094;11.900;2023-05-20T05:39:39;96300.66;;;17.06;98.07
11621;BME280;5866;49.094;11.900;2023-05-20T05:42:08;96285.94;;;17.42;94.27
11621;BME280;5866;49.094;11.900;2023-05-20T05:44:35;96286.50;;;17.25;94.59
11621;BME280;5866;49.094;11.900;2023-05-20T05:47:04;96287.78;;;17.35;94.36
11621;BME280;5866;49.094;11.900;2023-05-20T05:49:32;96286.03;;;18.01;89.63
11621;BME280;5866;49.094;11.900;2023-05-20T05:51:59;96287.28;;;18.05;85.94
11621;BME280;5866;49.094;11.900;2023-05-20T05:54:27;96288.66;;;18.67;82.05
11621;BME280;5866;49.094;11.900;2023-05-20T05:56:54;96274.66;;;18.12;85.54
11621;BME280;5866;49.094;11.900;2023-05-20T05:59:24;96270.75;;;18.28;83.44
11621;BME280;5866;49.094;11.900;2023-05-20T06:01:51;96277.97;;;18.21;84.24
11621;BME280;5866;49.094;11.900;2023-05-20T06:04:19;96277.97;;;18.27;82.25
11621;BME280;5866;49.094;11.900;2023-05-20T06:06:47;96272.16;;;18.37;80.87
11621;BME280;5866;49.094;11.900;2023-05-20T06:09:14;96272.53;;;18.67;80.13
11621;BME280;5866;49.094;11.900;2023-05-20T06:11:42;96272.13;;;18.70;78.00
11621;BME280;5866;49.094;11.900;2023-05-20T06:14:09;96264.28;;;18.68;78.57
11621;BME280;5866;49.094;11.900;2023-05-20T06:16:38;96269.88;;;18.54;79.05
11621;BME280;5866;49.094;11.900;2023-05-20T06:19:06;96276.50;;;18.25;81.52
11621;BME280;5866;49.094;11.900;2023-05-20T06:21:35;96270.13;;;18.19;80.61
11621;BME280;5866;49.094;11.900;2023-05-20T06:24:02;96273.03;;;18.18;80.32
11621;BME280;5866;49.094;11.900;2023-05-20T06:26:30;96263.06;;;18.38;78.51
11621;BME280;5866;49.094;11.900;2023-05-20T06:28:58;96277.06;;;18.79;77.18
11621;BME280;5866;49.094;11.900;2023-05-20T06:31:25;96263.03;;;18.71;77.07
11621;BME280;5866;49.094;11.900;2023-05-20T06:33:56;96268.44;;;18.58;75.37
11621;BME280;5866;49.094;11.900;2023-05-20T06:36:26;96266.69;;;18.89;75.69
11621;BME280;5866;49.094;11.900;2023-05-20T06:38:54;96258.09;;;18.61;75.70
11621;BME280;5866;49.094;11.900;2023-05-20T06:41:21;96259.31;;;18.72;74.87
11621;BME280;5866;49.094;11.900;2023-05-20T06:43:50;96269.25;;;18.65;75.48
11621;BME280;5866;49.094;11.900;2023-05-20T06:46:18;96261.16;;;19.22;73.60
11621;BME280;5866;49.094;11.900;2023-05-20T06:48:46;96269.09;;;19.79;70.01
11621;BME280;5866;49.094;11.900;2023-05-20T06:51:15;96262.72;;;20.73;64.42
11621;BME280;5866;49.094;11.900;2023-05-20T06:53:42;96257.84;;;20.63;64.27
11621;BME280;5866;49.094;11.900;2023-05-20T06:56:10;96252.38;;;20.88;62.18
11621;BME280;5866;49.094;11.900;2023-05-20T06:58:37;96247.91;;;20.82;63.95
11621;BME280;5866;49.094;11.900;2023-05-20T07:01:05;96246.59;;;20.66;63.08
11621;BME280;5866;49.094;11.900;2023-05-20T07:03:33;96243.31;;;20.46;64.33
11621;BME280;5866;49.094;11.900;2023-05-20T07:06:00;96247.97;;;20.75;64.40
11621;BME280;5866;49.094;11.900;2023-05-20T07:08:29;96242.88;;;20.85;62.27
11621;BME280;5866;49.094;11.900;2023-05-20T07:10:57;96250.06;;;20.91;62.72
11621;BME280;5866;49.094;11.900;2023-05-20T07:13:24;96255.75;;;20.83;62.51
11621;BME280;5866;49.094;11.900;2023-05-20T07:15:52;96256.78;;;21.00;60.56
11621;BME280;5866;49.094;11.900;2023-05-20T07:18:20;96245.59;;;21.33;61.37
11621;BME280;5866;49.094;11.900;2023-05-20T07:20:47;96247.25;;;22.17;57.95
11621;BME280;5866;49.094;11.900;2023-05-20T07:23:15;96247.72;;;21.61;59.04
11621;BME280;5866;49.094;11.900;2023-05-20T07:25:44;96235.53;;;21.70;58.05
11621;BME280;5866;49.094;11.900;2023-05-20T07:28:14;96238.16;;;20.81;61.98
11621;BME280;5866;49.094;11.900;2023-05-20T07:30:41;96237.91;;;21.18;60.15
11621;BME280;5866;49.094;11.900;2023-05-20T07:33:11;96225.09;;;21.44;59.17
11621;BME280;5866;49.094;11.900;2023-05-20T07:35:39;96225.84;;;21.51;58.56
11621;BME280;5866;49.094;11.900;2023-05-20T07:38:06;96228.22;;;21.59;59.89
11621;BME280;5866;49.094;11.900;2023-05-20T07:40:34;96226.94;;;21.91;58.67
11621;BME280;5866;49.094;11.900;2023-05-20T07:43:05;96228.59;;;22.61;55.53
11621;BME280;5866;49.094;11.900;2023-05-20T07:45:33;96217.06;;;22.54;55.85
11621;BME280;5866;49.094;11.900;2023-05-20T07:48:02;96211.78;;;23.11;54.94
11621;BME280;5866;49.094;11.900;2023-05-20T07:50:29;96212.31;;;23.36;52.45
11621;BME280;5866;49.094;11.900;2023-05-20T07:52:57;96209.78;;;23.74;52.91
11621;BME280;5866;49.094;11.900;2023-05-20T07:55:24;96215.28;;;24.45;50.92
11621;BME280;5866;49.094;11.900;2023-05-20T07:57:52;96213.41;;;24.46;49.24
11621;BME280;5866;49.094;11.900;2023-05-20T08:00:21;96214.78;;;24.65;49.17
11621;BME280;5866;49.094;11.900;2023-05-20T08:02:49;96203.88;;;25.25;47.60
11621;BME280;5866;49.094;11.900;2023-05-20T08:05:17;96215.50;;;24.22;48.17
11621;BME280;5866;49.094;11.900;2023-05-20T08:07:44;96214.81;;;24.32;48.72
11621;BME280;5866;49.094;11.900;2023-05-20T08:10:12;96215.16;;;24.35;49.17
11621;BME280;5866;49.094;11.900;2023-05-20T08:12:40;96209.53;;;24.59;48.42
11621;BME280;5866;49.094;11.900;2023-05-20T08:15:08;96206.66;;;24.87;48.71
11621;BME280;5866;49.094;11.900;2023-05-20T08:17:36;96213.88;;;24.98;46.99
11621;BME280;5866;49.094;11.900;2023-05-20T08:20:05;96206.19;;;25.86;45.49
11621;BME280;5866;49.094;11.900;2023-05-20T08:22:34;96205.97;;;25.18;45.82
11621;BME280;5866;49.094;11.900;2023-05-20T08:25:05;96206.66;;;24.87;48.14
11621;BME280;5866;49.094;11.900;2023-05-20T08:27:34;96205.28;;;25.06;46.67
11621;BME280;5866;49.094;11.900;2023-05-20T08:30:02;96200.38;;;25.03;47.36
11621;BME280;5866;49.094;11.900;2023-05-20T08:32:29;96204.63;;;25.95;46.46
11621;BME280;5866;49.094;11.900;2023-05-20T08:34:59;96210.50;;;26.46;44.66
11621;BME280;5866;49.094;11.900;2023-05-20T08:37:27;96202.19;;;25.41;46.41
11621;BME280;5866;49.094;11.900;2023-05-20T08:39:54;96204.13;;;25.45;46.83
11621;BME280;5866;49.094;11.900;2023-05-20T08:42:22;96202.19;;;25.41;46.15
11621;BME280;5866;49.094;11.900;2023-05-20T08:44:50;96203.25;;;26.25;45.13
11621;BME280;5866;49.094;11.900;2023-05-20T08:47:19;96194.53;;;26.64;45.13
11621;BME280;5866;49.094;11.900;2023-05-20T08:49:47;96200.34;;;26.73;44.23
11621;BME280;5866;49.094;11.900;2023-05-20T08:52:17;96208.47;;;26.68;44.69
11621;BME280;5866;49.094;11.900;2023-05-20T08:54:48;96208.69;;;26.25;45.23
11621;BME280;5866;49.094;11.900;2023-05-20T08:57:16;96208.25;;;26.38;45.24
11621;BME280;5866;49.094;11.900;2023-05-20T08:59:45;96203.84;;;25.68;45.16
11621;BME280;5866;49.094;11.900;2023-05-20T09:02:13;96208.00;;;24.68;47.54
11621;BME280;5866;49.094;11.900;2023-05-20T09:04:41;96185.91;;;24.97;47.25
11621;BME280;5866;49.094;11.900;2023-05-20T09:07:09;96202.28;;;25.02;47.68
11621;BME280;5866;49.094;11.900;2023-05-20T09:09:38;96201.00;;;25.10;46.91
11621;BME280;5866;49.094;11.900;2023-05-20T09:12:06;96207.25;;;26.49;44.95
11621;BME280;5866;49.094;11.900;2023-05-20T09:14:34;96203.25;;;27.13;43.04
11621;BME280;5866;49.094;11.900;2023-05-20T09:17:03;96198.88;;;26.19;45.48
11621;BME280;5866;49.094;11.900;2023-05-20T09:19:32;96189.66;;;26.20;44.21
11621;BME280;5866;49.094;11.900;2023-05-20T09:22:02;96202.00;;;25.74;45.82
11621;BME280;5866;49.094;11.900;2023-05-20T09:24:30;96202.97;;;26.63;44.54
11621;BME280;5866;49.094;11.900;2023-05-20T09:26:59;96200.63;;;24.80;46.89
11621;BME280;5866;49.094;11.900;2023-05-20T09:29:27;96197.75;;;24.15;48.50
11621;BME280;5866;49.094;11.900;2023-05-20T09:31:54;96204.09;;;25.18;47.30
11621;BME280;5866;49.094;11.900;2023-05-20T09:34:22;96196.16;;;24.90;47.58
11621;BME280;5866;49.094;11.900;2023-05-20T09:36:50;96192.19;;;25.73;46.71
11621;BME280;5866;49.094;11.900;2023-05-20T09:39:21;96187.88;;;26.82;45.15
11621;BME280;5866;49.094;11.900;2023-05-20T09:41:54;96184.88;;;27.40;41.75
11621;BME280;5866;49.094;11.900;2023-05-20T09:44:24;96171.31;;;27.76;43.50
11621;BME280;5866;49.094;11.900;2023-05-20T09:46:55;96188.19;;;27.78;42.00
11621;BME280;5866;49.094;11.900;2023-05-20T09:49:24;96176.31;;;27.12;43.44
11621;BME280;5866;49.094;11.900;2023-05-20T09:51:52;96183.28;;;27.80;41.76
11621;BME280;5866;49.094;11.900;2023-05-20T09:54:20;96177.59;;;28.42;40.75
11621;BME280;5866;49.094;11.900;2023-05-20T09:56:49;96177.91;;;28.10;42.12
11621;BME280;5866;49.094;11.900;2023-05-20T09:59:20;96166.16;;;28.09;41.54
11621;BME280;5866;49.094;11.900;2023-05-20T10:01:49;96167.19;;;27.63;42.84
11621;BME280;5866;49.094;11.900;2023-05-20T10:04:18;96156.91;;;26.98;43.15
11621;BME280;5866;49.094;11.900;2023-05-20T10:07:05;96159.31;;;27.87;42.67
11621;BME280;5866;49.094;11.900;2023-05-20T10:09:51;96159.31;;;28.32;41.61
11621;BME280;5866;49.094;11.900;2023-05-20T10:12:28;96164.19;;;27.60;41.55
11621;BME280;5866;49.094;11.900;2023-05-20T10:15:08;96168.56;;;27.76;40.73
11621;BME280;5866;49.094;11.900;2023-05-20T10:17:45;96158.38;;;26.64;42.99
11621;BME280;5866;49.094;11.900;2023-05-20T10:20:16;96165.78;;;26.32;44.05
11621;BME280;5866;49.094;11.900;2023-05-20T10:22:54;96163.81;;;26.64;43.74
11621;BME280;5866;49.094;11.900;2023-05-20T10:25:26;96158.25;;;26.44;44.06
11621;BME280;5866;49.094;11.900;2023-05-20T10:28:04;96155.47;;;25.65;44.49
11621;BME280;5866;49.094;11.900;2023-05-20T10:30:33;96152.63;;;25.87;45.38
11621;BME280;5866;49.094;11.900;2023-05-20T10:33:05;96149.03;;;25.76;47.03
11621;BME280;5866;49.094;11.900;2023-05-20T10:35:33;96157.75;;;25.78;45.29
11621;BME280;5866;49.094;11.900;2023-05-20T10:38:09;96145.03;;;26.16;45.55
11621;BME280;5866;49.094;11.900;2023-05-20T10:40:37;96140.09;;;26.13;45.29
11621;BME280;5866;49.094;11.900;2023-05-20T10:43:09;96143.09;;;26.58;45.60
11621;BME280;5866;49.094;11.900;2023-05-20T10:45:47;96148.97;;;27.89;42.72
11621;BME280;5866;49.094;11.900;2023-05-20T10:48:22;96141.06;;;28.17;40.71
11621;BME280;5866;49.094;11.900;2023-05-20T10:50:53;96132.88;;;27.92;41.13
11621;BME280;5866;49.094;11.900;2023-05-20T10:53:23;96138.56;;;27.40;42.34
11621;BME280;5866;49.094;11.900;2023-05-20T10:55:59;96141.41;;;26.94;42.98
11621;BME280;5866;49.094;11.900;2023-05-20T10:58:35;96131.06;;;27.01;42.83
11621;BME280;5866;49.094;11.900;2023-05-20T11:01:03;96126.97;;;26.98;44.62
11621;BME280;5866;49.094;11.900;2023-05-20T11:03:33;96132.41;;;26.98;42.81
11621;BME280;5866;49.094;11.900;2023-05-20T11:06:10;96121.38;;;26.68;43.44
11621;BME280;5866;49.094;11.900;2023-05-20T11:08:37;96130.69;;;26.72;42.81
11621;BME280;5866;49.094;11.900;2023-05-20T11:11:05;96122.97;;;27.31;40.87
11621;BME280;5866;49.094;11.900;2023-05-20T11:13:33;96114.63;;;28.03;40.75
11621;BME280;5866;49.094;11.900;2023-05-20T11:16:01;96115.19;;;28.00;40.56
11621;BME280;5866;49.094;11.900;2023-05-20T11:18:29;96108.88;;;27.54;40.71
11621;BME280;5866;49.094;11.900;2023-05-20T11:20:59;96107.53;;;27.77;40.87
11621;BME280;5866;49.094;11.900;2023-05-20T11:23:27;96105.06;;;27.55;41.77
11621;BME280;5866;49.094;11.900;2023-05-20T11:25:56;96115.78;;;26.01;43.40
11621;BME280;5866;49.094;11.900;2023-05-20T11:28:24;96114.38;;;25.35;43.97
11621;BME280;5866;49.094;11.900;2023-05-20T11:30:52;96092.09;;;25.33;43.72
11621;BME280;5866;49.094;11.900;2023-05-20T11:33:20;96098.16;;;25.40;43.49
11621;BME280;5866;49.094;11.900;2023-05-20T11:35:50;96107.34;;;25.39;43.66
11621;BME280;5866;49.094;11.900;2023-05-20T11:38:20;96110.88;;;25.98;44.57
11621;BME280;5866;49.094;11.900;2023-05-20T11:40:50;96099.31;;;26.64;44.05
11621;BME280;5866;49.094;11.900;2023-05-20T11:43:19;96103.69;;;27.58;41.12
11621;BME280;5866;49.094;11.900;2023-05-20T11:45:52;96104.00;;;27.96;40.70
11621;BME280;5866;49.094;11.900;2023-05-20T11:48:20;96092.03;;;28.91;39.81
11621;BME280;5866;49.094;11.900;2023-05-20T11:50:47;96092.81;;;28.13;41.01
11621;BME280;5866;49.094;11.900;2023-05-20T11:53:16;96096.94;;;26.73;41.06
11621;BME280;5866;49.094;11.900;2023-05-20T11:55:47;96111.16;;;25.38;43.64
11621;BME280;5866;49.094;11.900;2023-05-20T11:58:15;96113.91;;;24.90;45.31
11621;BME280;5866;49.094;11.900;2023-05-20T12:00:44;96110.25;;;25.01;45.57
11621;BME280;5866;49.094;11.900;2023-05-20T12:03:22;96112.91;;;25.49;44.23
11621;BME280;5866;49.094;11.900;2023-05-20T12:05:51;96105.59;;;26.70;42.77
11621;BME280;5866;49.094;11.900;2023-05-20T12:08:19;96106.50;;;26.29;43.14
11621;BME280;5866;49.094;11.900;2023-05-20T12:10:49;96106.25;;;25.98;42.83
11621;BME280;5866;49.094;11.900;2023-05-20T12:13:16;96104.22;;;26.67;41.28
11621;BME280;5866;49.094;11.900;2023-05-20T12:15:44;96090.09;;;27.63;38.76
11621;BME280;5866;49.094;11.900;2023-05-20T12:18:12;96092.50;;;28.24;36.61
11621;BME280;5866;49.094;11.900;2023-05-20T12:20:41;96085.88;;;28.61;37.66
11621;BME280;5866;49.094;11.900;2023-05-20T12:23:08;96091.13;;;28.22;40.11
11621;BME280;5866;49.094;11.900;2023-05-20T12:25:36;96081.38;;;28.11;38.51
11621;BME280;5866;49.094;11.900;2023-05-20T12:28:05;96085.44;;;27.63;38.76
11621;BME280;5866;49.094;11.900;2023-05-20T12:30:33;96078.38;;;27.52;39.42
11621;BME280;5866;49.094;11.900;2023-05-20T12:33:01;96075.63;;;27.67;39.59
11621;BME280;5866;49.094;11.900;2023-05-20T12:35:36;96082.66;;;26.51;42.57
11621;BME280;5866;49.094;11.900;2023-05-20T12:38:03;96079.97;;;26.61;42.60
11621;BME280;5866;49.094;11.900;2023-05-20T12:40:32;96081.75;;;25.93;44.03
11621;BME280;5866;49.094;11.900;2023-05-20T12:43:00;96080.19;;;26.02;44.69
11621;BME280;5866;49.094;11.900;2023-05-20T12:45:29;96086.13;;;25.99;43.50
11621;BME280;5866;49.094;11.900;2023-05-20T12:47:57;96086.16;;;25.63;42.08
11621;BME280;5866;49.094;11.900;2023-05-20T12:50:26;96084.94;;;25.49;41.59
11621;BME280;5866;49.094;11.900;2023-05-20T12:52:53;96081.47;;;25.53;41.16
11621;BME280;5866;49.094;11.900;2023-05-20T12:55:21;96087.03;;;25.73;41.04
11621;BME280;5866;49.094;11.900;2023-05-20T12:57:49;96077.13;;;26.31;40.87
11621;BME280;5866;49.094;11.900;2023-05-20T13:00:16;96080.38;;;26.90;39.93
11621;BME280;5866;49.094;11.900;2023-05-20T13:02:45;96069.50;;;26.90;40.22